Flight Track Log - Related Links

Times and Time Zones

All times are in EDT time to prevent confusion due to time zone crossing. See the QFA1100 flight status page for this flight to view local times or setup timezone preferences in your user account.

Time Position Orientation Groundspeed Altitude Reporting Facility
EDT Latitude Longitude Course Direction KTS MPH feet Rate Location/Type
Wed 01:26:20 AM -31.9310 115.9610 106° East  Level FlightAware ADS-B
Wed 01:31:56 AM -31.9350 115.9670 190° South 98 113 96 Level FlightAware ADS-B
Wed 01:32:16 AM -31.9470 115.9630 196° South 155 178 900 Level FlightAware ADS-B
Wed 01:32:36 AM -31.9610 115.9590 194° South 148 170 600 1,733 Climbing FlightAware ADS-B
Wed 01:33:01 AM -31.9800 115.9540 193° South 183 211 1,300 1,867 Climbing FlightAware ADS-B
Wed 01:33:21 AM -31.9980 115.9500 191° South 194 223 2,000 2,488 Climbing FlightAware ADS-B
Wed 01:33:42 AM -32.0160 115.9540 169° South 210 242 3,000 3,120 Climbing FlightAware ADS-B
Wed 01:33:46 AM -32.0210 115.9570 153° Southeast 207 238 3,300 3,000 Climbing FlightAware ADS-B
Wed 01:33:56 AM -32.0290 115.9650 140° Southeast 222 255 3,700 2,400 Climbing FlightAware ADS-B
Wed 01:34:06 AM -32.0360 115.9750 130° Southeast 243 280 4,100 2,100 Climbing FlightAware ADS-B
Wed 01:34:16 AM -32.0400 115.9880 110° East 255 293 4,400 2,400 Climbing FlightAware ADS-B
Wed 01:34:36 AM -32.0460 116.0160 104° East 268 308 5,300 2,914 Climbing FlightAware ADS-B
Wed 01:34:51 AM -32.0510 116.0380 105° East 276 318 6,100 2,914 Climbing FlightAware ADS-B
Wed 01:35:11 AM -32.0580 116.0680 105° East 285 328 7,000 2,914 Climbing FlightAware ADS-B
Wed 01:35:26 AM -32.0630 116.0900 105° East 291 335 7,800 3,257 Climbing FlightAware ADS-B
Wed 01:35:46 AM -32.0710 116.1210 107° East 295 339 8,900 3,150 Climbing FlightAware ADS-B
Wed 01:36:06 AM -32.0780 116.1520 105° East 303 349 9,900 2,160 Climbing FlightAware ADS-B
Wed 01:36:36 AM -32.0840 116.2030 98° East 346 398 10,700 1,500 Climbing FlightAware ADS-B
Wed 01:36:46 AM -32.0790 116.2230 74° East 363 418 10,900 1,800 Climbing FlightAware ADS-B
Wed 01:36:56 AM -32.0710 116.2390 59° Northeast 370 426 11,300 2,933 Climbing FlightAware ADS-B
Wed 01:37:31 AM -32.0290 116.2920 47° Northeast 377 434 13,100 3,353 Climbing FlightAware ADS-B
Wed 01:38:04 AM -31.9904 116.3394 47° Northeast 370 426 15,100 3,086 Climbing Aus ATC (RADAR)
Wed 01:38:06 AM -31.9860 116.3440 47° Northeast 380 437 14,900 2,914 Descending FlightAware ADS-B
Wed 01:38:39 AM -31.9470 116.3936 47° Northeast 382 440 16,800 3,000 Climbing Aus ATC (RADAR)
Wed 01:38:46 AM -31.9370 116.4070 47° Northeast 399 459 16,900 2,000 Climbing FlightAware ADS-B
Wed 01:39:21 AM -31.8910 116.4630 46° Northeast 411 473 18,200 2,320 Climbing FlightAware ADS-B
Wed 01:40:01 AM -31.8380 116.5290 47° Northeast 427 491 19,800 2,229 Climbing FlightAware ADS-B
Wed 01:40:31 AM -31.7950 116.5820 46° Northeast 447 514 20,800 2,215 Climbing FlightAware ADS-B
Wed 01:41:06 AM -31.7440 116.6450 46° Northeast 450 518 22,200 2,400 Climbing FlightAware ADS-B
Wed 01:41:46 AM -31.6860 116.7160 46° Northeast 455 524 23,800 2,160 Climbing FlightAware ADS-B
Wed 01:42:21 AM -31.6350 116.7800 47° Northeast 470 541 24,900 1,754 Climbing FlightAware ADS-B
Wed 01:42:51 AM -31.5880 116.8370 46° Northeast 479 551 25,700 1,905 Climbing FlightAware ADS-B
Wed 01:43:24 AM -31.5326 116.8854 46° Northeast 464 534 26,900 1,714 Climbing Aus ATC (RADAR)
Wed 01:43:26 AM -31.5250 116.8890 46° Northeast 457 526 26,700 3,257 Descending FlightAware ADS-B
Wed 01:43:59 AM -31.4640 116.9158 46° Northeast 447 514 28,800 3,600 Climbing Aus ATC (RADAR)
Wed 01:44:06 AM -31.4500 116.9220 46° Northeast 427 491 29,100 1,946 Climbing FlightAware ADS-B
Wed 01:44:36 AM -31.3950 116.9440 19° North 428 493 30,000 1,524 Climbing FlightAware ADS-B
Wed 01:45:09 AM -31.3329 116.9698 19° North 435 501 30,700 857 Climbing Aus ATC (RADAR)
Wed 01:45:11 AM -31.3280 116.9720 19° North 443 510 30,500 811 Descending FlightAware ADS-B
Wed 01:45:46 AM -31.2590 117.0000 19° North 440 506 31,200 1,920 Climbing FlightAware ADS-B
Wed 01:46:26 AM -31.1800 117.0330 20° North 426 490 32,900 2,160 Climbing FlightAware ADS-B
Wed 01:47:01 AM -31.1140 117.0590 19° North 429 494 33,900 1,754 Climbing FlightAware ADS-B
Wed 01:47:31 AM -31.0600 117.0820 20° North 422 486 34,800 943 Climbing FlightAware ADS-B
Wed 01:48:11 AM -30.9840 117.1120 19° North 440 506 35,000 720 Climbing FlightAware ADS-B
Wed 01:48:46 AM -30.9170 117.1400 20° North 442 509 35,700 1,000 Climbing FlightAware ADS-B
Wed 01:49:17 AM -30.8600 117.1630 19° North 445 512 36,100 960 Climbing FlightAware ADS-B
Wed 01:50:01 AM -30.7710 117.2040 22° Northeast 451 519 36,900 987 Climbing FlightAware ADS-B
Wed 01:50:36 AM -30.7040 117.2350 22° Northeast 454 522 37,400 857 Climbing FlightAware ADS-B
Wed 01:51:11 AM -30.6340 117.2670 21° North 450 518 37,900 771 Climbing FlightAware ADS-B
Wed 01:51:46 AM -30.5650 117.2990 22° Northeast 453 521 38,300 600 Climbing FlightAware ADS-B
Wed 01:52:21 AM -30.4960 117.3310 22° Northeast 464 534 38,600 514 Climbing FlightAware ADS-B
Wed 01:52:56 AM -30.4270 117.3620 21° North 467 537 38,900 358 Climbing FlightAware ADS-B
Wed 01:53:28 AM -30.3660 117.3900 22° Northeast 469 540 39,000 86 Climbing FlightAware ADS-B
Wed 01:54:06 AM -30.2850 117.4280 22° Northeast 470 541 39,000  Level FlightAware ADS-B
Wed 01:54:41 AM -30.2140 117.4600 21° North 471 542 39,000  Level FlightAware ADS-B
Wed 01:55:16 AM -30.1440 117.4920 22° Northeast 470 541 39,000  Level FlightAware ADS-B
Wed 01:55:51 AM -30.0730 117.5240 21° North 470 541 39,000 269 Level FlightAware ADS-B
Wed 01:56:23 AM -30.0072 117.5531 21° North 469 540 39,300  Climbing Aus ATC (RADAR)
Wed 01:56:33 AM -29.9940 117.5600 21° North 468 539 39,000 -400 Descending FlightAware ADS-B
Wed 01:57:08 AM -29.9190 117.5940 21° North 467 537 39,000  Level FlightAware ADS-B
Wed 01:57:41 AM -29.8570 117.6220 21° North 465 535 39,000  Level FlightAware ADS-B
Wed 01:58:17 AM -29.7860 117.6540 21° North 465 535 39,000 250 Level FlightAware ADS-B
Wed 01:58:53 AM -29.7070 117.6898 21° North 462 532 39,300  Climbing Aus ATC (RADAR)
Wed 01:59:07 AM -29.6860 117.6990 21° North 464 534 39,000 -346 Descending FlightAware ADS-B
Wed 01:59:45 AM -29.6030 117.7370 22° Northeast 454 522 39,000 257 Level FlightAware ADS-B
Wed 02:00:17 AM -29.5463 117.7601 22° Northeast 466 536 39,300  Climbing Aus ATC (RADAR)
Wed 02:00:24 AM -29.5290 117.7700 22° Northeast 454 522 39,000 -409 Descending FlightAware ADS-B
Wed 02:01:01 AM -29.4530 117.8040 21° North 463 533 39,000  Level FlightAware ADS-B
Wed 02:01:34 AM -29.3960 117.8290 21° North 463 533 39,000  Level FlightAware ADS-B
Wed 02:02:08 AM -29.3200 117.8630 21° North 466 536 39,000  Level FlightAware ADS-B
Wed 02:02:44 AM -29.2470 117.8960 22° Northeast 466 536 39,000  Level FlightAware ADS-B
Wed 02:03:25 AM -29.1620 117.9340 21° North 466 536 39,000  Level FlightAware ADS-B
Wed 02:04:00 AM -29.1010 117.9610 21° North 466 536 39,000  Level FlightAware ADS-B
Wed 02:04:38 AM -29.0160 117.9990 21° North 466 536 39,000  Level FlightAware ADS-B
Wed 02:05:18 AM -28.9350 118.0350 21° North 465 535 39,000 228 Level FlightAware ADS-B
Wed 02:05:57 AM -28.8539 118.0671 21° North 466 536 39,300  Climbing Aus ATC (RADAR)
Wed 02:06:08 AM -28.8420 118.0760 21° North 465 535 39,000 -383 Descending FlightAware ADS-B
Wed 02:06:44 AM -28.7810 118.1030 21° North 465 535 39,000  Level FlightAware ADS-B
Wed 02:07:20 AM -28.7190 118.1300 21° North 465 535 39,000  Level FlightAware ADS-B
Wed 02:07:57 AM -28.6560 118.1580 21° North 465 535 39,000  Level FlightAware ADS-B
Wed 02:08:33 AM -28.5950 118.1850 21° North 465 535 39,000  Level FlightAware ADS-B
Wed 02:09:09 AM -28.5330 118.2120 21° North 465 535 39,000  Level FlightAware ADS-B
Wed 02:09:45 AM -28.4720 118.2380 21° North 465 535 39,000  Level FlightAware ADS-B
Wed 02:10:22 AM -28.4090 118.2660 21° North 465 535 39,000  Level FlightAware ADS-B
Wed 02:10:58 AM -28.3470 118.2930 21° North 465 535 39,000 171 Level FlightAware ADS-B
Wed 02:11:32 AM -28.1794 118.3577 21° North 469 540 39,200  Climbing Aus ATC (RADAR)
Wed 02:11:34 AM -28.2860 118.3200 21° North 465 535 39,000 -316 Descending FlightAware ADS-B
Wed 02:12:10 AM -28.2240 118.3460 20° North 465 535 39,000  Level FlightAware ADS-B
Wed 02:12:43 AM -28.0420 118.4280 22° Northeast 474 545 39,000  Level FlightAware ADS-B
Wed 02:13:22 AM -27.9740 118.4570 21° North 474 545 39,000  Level FlightAware ADS-B
Wed 02:13:58 AM -27.9120 118.4850 22° Northeast 474 545 39,000  Level FlightAware ADS-B
Wed 02:14:34 AM -27.8490 118.5120 21° North 474 545 39,000  Level FlightAware ADS-B
Wed 02:14:36 AM -27.7822 118.5381 167° South 39,000  Level Aus ATC (Calculated)
Wed 02:15:10 AM -27.7860 118.5390 21° North 474 545 39,000  Level FlightAware ADS-B
Wed 02:15:46 AM -27.7240 118.5660 21° North 474 545 39,000  Level FlightAware ADS-B
Wed 02:16:22 AM -27.6610 118.5930 21° North 474 545 39,000  Level FlightAware ADS-B
Wed 02:16:58 AM -27.5980 118.6200 21° North 474 545 39,000  Level FlightAware ADS-B
Wed 02:17:34 AM -27.5360 118.6480 22° Northeast 474 545 39,000  Level FlightAware ADS-B
Wed 02:18:11 AM -27.4710 118.6750 20° North 474 545 39,000  Level FlightAware ADS-B
Wed 02:18:11 AM -27.3356 118.7322 199° South 39,000  Level Aus ATC (Calculated)
Wed 02:18:47 AM -27.4090 118.7030 20° North 474 545 39,000  Level FlightAware ADS-B
Wed 02:19:23 AM -27.3460 118.7300 21° North 474 545 39,000  Level FlightAware ADS-B
Wed 02:19:59 AM -27.2830 118.7570 21° North 474 545 39,000  Level FlightAware ADS-B
Wed 02:20:35 AM -27.2210 118.7840 21° North 474 545 39,000 179 Level FlightAware ADS-B
Wed 02:21:06 AM -27.0138 118.8862 21° North 540 621 39,200  Climbing Aus ATC (RADAR)
Wed 02:21:12 AM -27.1560 118.8120 21° North 474 545 39,000 -286 Descending FlightAware ADS-B
Wed 02:21:48 AM -27.0940 118.8390 21° North 474 545 39,000 174 Level FlightAware ADS-B
Wed 02:22:21 AM -26.8636 118.9364 21° North 486 559 39,200  Climbing Aus ATC (RADAR)
Wed 02:22:25 AM -27.0290 118.8660 21° North 474 545 39,000  Descending FlightAware ADS-B
Wed 02:23:31 AM -26.7199 118.9936 21° North 480 552 39,200 61 Climbing Aus ATC (RADAR)
Wed 02:25:41 AM -26.4512 119.1086 21° North 450 518 39,200  Level Aus ATC (RADAR)
Wed 02:26:15 AM -26.3790 119.1389 21° North 462 532 39,200  Level Aus ATC (RADAR)
Wed 02:27:00 AM -26.2860 119.1788 21° North 470 541 39,200  Level Aus ATC (RADAR)
Wed 02:28:25 AM -26.1076 119.2603 22° Northeast 481 554 39,200  Level Aus ATC (RADAR)
Wed 02:28:55 AM -26.0464 119.2849 20° North 478 550 39,200  Level Aus ATC (RADAR)
Wed 02:30:00 AM -25.9141 119.3395 20° North 473 544 39,200  Level Aus ATC (RADAR)
Wed 02:30:45 AM -25.8209 119.3798 21° North 475 547 39,200  Level Aus ATC (RADAR)
Wed 02:31:20 AM -25.7505 119.4083 20° North 470 541 39,200  Level Aus ATC (RADAR)
Wed 02:32:05 AM -25.6600 119.4438 19° North 464 534 39,200  Level Aus ATC (RADAR)
Wed 02:33:30 AM -25.4861 119.5166 21° North 471 542 39,200  Level Aus ATC (RADAR)
Wed 02:34:00 AM -25.4243 119.5423 21° North 473 544 39,200 -67 Level Aus ATC (RADAR)
Wed 02:35:00 AM -25.2999 119.5942 21° North 474 545 39,100 -58 Descending Aus ATC (RADAR)
Wed 02:35:44 AM -25.2075 119.6322 20° North 473 544 39,100  Level Aus ATC (RADAR)
Wed 02:36:19 AM -25.1336 119.6642 21° North 482 555 39,100 -600 Level Aus ATC (RADAR)
Wed 02:37:04 AM -25.0436 119.6997 20° North 467 537 38,300 -1,943 Descending Aus ATC (RADAR)
Wed 02:38:04 AM -24.9208 119.7478 20° North 469 540 35,700 -2,400 Descending Aus ATC (RADAR)
Wed 02:39:04 AM -24.7953 119.7565 North 457 526 33,500 -2,350 Descending Aus ATC (RADAR)
Wed 02:40:04 AM -24.6799 119.7582 North 415 478 31,000 -2,629 Descending Aus ATC (RADAR)
Wed 02:40:49 AM -24.5912 119.7611 North 416 479 28,900 -2,753 Descending Aus ATC (RADAR)
Wed 02:41:29 AM -24.5103 119.7658 North 422 486 27,100 -2,500 Descending Aus ATC (RADAR)
Wed 02:42:49 AM -24.3595 119.7699 North 404 465 23,900 -2,477 Descending Aus ATC (RADAR)
Wed 02:44:04 AM -24.2195 119.7741 North 394 453 20,700 -2,457 Descending Aus ATC (RADAR)
Wed 02:44:34 AM -24.1636 119.7769 North 394 453 19,600 -2,215 Descending Aus ATC (RADAR)
Wed 02:45:09 AM -24.1040 119.7777 North 373 429 18,300 -2,118 Descending Aus ATC (RADAR)
Wed 02:45:59 AM -24.0230 119.8027 16° North 362 417 16,600 -2,040 Descending Aus ATC (RADAR)
Wed 02:49:09 AM -23.5672 119.8036 360° North 1,700 -4,705 Descending Aus ATC (Calculated)
Wed 02:51:00 AM -23.4178 119.8028 360° North  Level Estimated
Wed 02:52:00 AM -23.4178 119.8028 176° South  Level Estimated
Wed 02:53:00 AM -23.4178 119.8028 176° South  Level Estimated
Wed 02:54:00 AM -23.4178 119.8028 176° South  Level Estimated
Wed 02:55:00 AM -23.4178 119.8028 355° North  Level Estimated
Wed 02:56:00 AM -23.4178 119.8028 355° North  Level Estimated
Wed 02:57:00 AM -23.4178 119.8028 355° North  Level Estimated
Wed 02:58:00 AM -23.4178 119.8028 355° North  Level Estimated
Wed 02:59:00 AM -23.4178 119.8028 355° North  Level Estimated
Wed 03:00:00 AM -23.4178 119.8028 355° North  Level Estimated
Wed 03:01:00 AM -23.4178 119.8028 355° North  Level Estimated
Wed 03:02:00 AM -23.4178 119.8028 355° North  Level Estimated

Login

Don't have an account? Register now (free) for customized features, flight alerts, and more!